sensor_id;sensor_type;location;lat;lon;timestamp;P1;durP1;ratioP1;P2;durP2;ratioP2
295;SDS011;132;48.770;9.200;2022-10-30T00:00:08;12.73;;;4.03;;
295;SDS011;132;48.770;9.200;2022-10-30T00:02:38;13.87;;;4.30;;
295;SDS011;132;48.770;9.200;2022-10-30T00:05:04;15.63;;;4.60;;
295;SDS011;132;48.770;9.200;2022-10-30T00:07:32;20.67;;;4.10;;
295;SDS011;132;48.770;9.200;2022-10-30T00:09:58;13.80;;;4.13;;
295;SDS011;132;48.770;9.200;2022-10-30T00:12:25;10.17;;;3.90;;
295;SDS011;132;48.770;9.200;2022-10-30T00:14:51;11.50;;;3.63;;
295;SDS011;132;48.770;9.200;2022-10-30T00:17:18;13.97;;;3.93;;
295;SDS011;132;48.770;9.200;2022-10-30T00:19:44;13.03;;;4.10;;
295;SDS011;132;48.770;9.200;2022-10-30T00:22:10;12.20;;;4.27;;
295;SDS011;132;48.770;9.200;2022-10-30T00:24:37;11.40;;;4.00;;
295;SDS011;132;48.770;9.200;2022-10-30T00:27:03;9.70;;;3.87;;
295;SDS011;132;48.770;9.200;2022-10-30T00:29:30;13.07;;;3.73;;
295;SDS011;132;48.770;9.200;2022-10-30T00:31:57;10.30;;;3.70;;
295;SDS011;132;48.770;9.200;2022-10-30T00:34:24;11.03;;;3.77;;
295;SDS011;132;48.770;9.200;2022-10-30T00:36:50;12.43;;;3.60;;
295;SDS011;132;48.770;9.200;2022-10-30T00:39:16;11.70;;;4.10;;
295;SDS011;132;48.770;9.200;2022-10-30T00:41:44;11.30;;;3.93;;
295;SDS011;132;48.770;9.200;2022-10-30T00:47:06;14.03;;;4.30;;
295;SDS011;132;48.770;9.200;2022-10-30T00:50:29;11.00;;;3.90;;
295;SDS011;132;48.770;9.200;2022-10-30T00:52:38;19.40;;;4.30;;
295;SDS011;132;48.770;9.200;2022-10-30T00:55:10;14.30;;;4.23;;
295;SDS011;132;48.770;9.200;2022-10-30T00:57:44;10.03;;;4.00;;
295;SDS011;132;48.770;9.200;2022-10-30T01:00:12;14.73;;;4.37;;
295;SDS011;132;48.770;9.200;2022-10-30T01:02:40;7.63;;;3.40;;
295;SDS011;132;48.770;9.200;2022-10-30T01:05:09;9.37;;;3.67;;
295;SDS011;132;48.770;9.200;2022-10-30T01:07:40;10.70;;;3.90;;
295;SDS011;132;48.770;9.200;2022-10-30T01:10:07;12.73;;;3.83;;
295;SDS011;132;48.770;9.200;2022-10-30T01:12:35;10.53;;;3.80;;
295;SDS011;132;48.770;9.200;2022-10-30T01:15:02;12.97;;;4.53;;
295;SDS011;132;48.770;9.200;2022-10-30T01:20:18;10.50;;;4.17;;
295;SDS011;132;48.770;9.200;2022-10-30T01:36:37;10.87;;;4.00;;
295;SDS011;132;48.770;9.200;2022-10-30T01:39:12;13.23;;;4.30;;
295;SDS011;132;48.770;9.200;2022-10-30T01:42:36;11.53;;;4.37;;
295;SDS011;132;48.770;9.200;2022-10-30T01:45:10;17.00;;;5.00;;
295;SDS011;132;48.770;9.200;2022-10-30T01:48:05;10.20;;;4.33;;
295;SDS011;132;48.770;9.200;2022-10-30T01:50:54;15.53;;;5.07;;
295;SDS011;132;48.770;9.200;2022-10-30T01:56:19;11.57;;;5.03;;
295;SDS011;132;48.770;9.200;2022-10-30T01:59:12;13.40;;;4.50;;
295;SDS011;132;48.770;9.200;2022-10-30T02:02:05;12.70;;;5.27;;
295;SDS011;132;48.770;9.200;2022-10-30T02:04:33;18.40;;;4.77;;
295;SDS011;132;48.770;9.200;2022-10-30T02:06:59;10.00;;;4.87;;
295;SDS011;132;48.770;9.200;2022-10-30T02:09:26;18.83;;;5.10;;
295;SDS011;132;48.770;9.200;2022-10-30T02:11:53;14.70;;;5.57;;
295;SDS011;132;48.770;9.200;2022-10-30T02:14:21;9.47;;;4.60;;
295;SDS011;132;48.770;9.200;2022-10-30T02:16:53;11.77;;;4.53;;
295;SDS011;132;48.770;9.200;2022-10-30T02:19:23;15.20;;;5.03;;
295;SDS011;132;48.770;9.200;2022-10-30T02:21:49;10.73;;;4.87;;
295;SDS011;132;48.770;9.200;2022-10-30T02:24:16;11.93;;;5.30;;
295;SDS011;132;48.770;9.200;2022-10-30T02:26:43;12.57;;;5.33;;
295;SDS011;132;48.770;9.200;2022-10-30T02:29:09;10.40;;;4.40;;
295;SDS011;132;48.770;9.200;2022-10-30T02:31:36;9.40;;;4.60;;
295;SDS011;132;48.770;9.200;2022-10-30T02:34:02;12.40;;;4.50;;
295;SDS011;132;48.770;9.200;2022-10-30T02:36:29;7.87;;;4.27;;
295;SDS011;132;48.770;9.200;2022-10-30T02:38:55;13.20;;;5.10;;
295;SDS011;132;48.770;9.200;2022-10-30T02:41:22;12.70;;;4.97;;
295;SDS011;132;48.770;9.200;2022-10-30T02:43:51;26.37;;;4.77;;
295;SDS011;132;48.770;9.200;2022-10-30T02:46:20;12.27;;;4.43;;
295;SDS011;132;48.770;9.200;2022-10-30T02:48:48;10.67;;;4.50;;
295;SDS011;132;48.770;9.200;2022-10-30T02:51:14;15.53;;;4.60;;
295;SDS011;132;48.770;9.200;2022-10-30T02:53:41;14.47;;;4.90;;
295;SDS011;132;48.770;9.200;2022-10-30T02:56:10;14.83;;;4.40;;
295;SDS011;132;48.770;9.200;2022-10-30T02:58:39;11.80;;;4.50;;
295;SDS011;132;48.770;9.200;2022-10-30T03:01:17;14.17;;;5.20;;
295;SDS011;132;48.770;9.200;2022-10-30T03:03:44;11.70;;;4.57;;
295;SDS011;132;48.770;9.200;2022-10-30T03:06:12;15.40;;;5.23;;
295;SDS011;132;48.770;9.200;2022-10-30T03:08:40;15.10;;;4.70;;
295;SDS011;132;48.770;9.200;2022-10-30T03:11:09;18.73;;;5.67;;
295;SDS011;132;48.770;9.200;2022-10-30T03:13:40;14.07;;;5.00;;
295;SDS011;132;48.770;9.200;2022-10-30T03:16:10;15.43;;;5.50;;
295;SDS011;132;48.770;9.200;2022-10-30T03:18:42;14.97;;;5.67;;
295;SDS011;132;48.770;9.200;2022-10-30T03:21:11;13.10;;;4.87;;
295;SDS011;132;48.770;9.200;2022-10-30T03:23:39;21.37;;;5.33;;
295;SDS011;132;48.770;9.200;2022-10-30T03:26:05;14.10;;;4.50;;
295;SDS011;132;48.770;9.200;2022-10-30T03:28:38;14.43;;;5.13;;
295;SDS011;132;48.770;9.200;2022-10-30T03:31:12;13.40;;;5.50;;
295;SDS011;132;48.770;9.200;2022-10-30T03:33:40;15.47;;;4.83;;
295;SDS011;132;48.770;9.200;2022-10-30T03:36:07;15.97;;;6.03;;
295;SDS011;132;48.770;9.200;2022-10-30T03:38:35;14.87;;;5.07;;
295;SDS011;132;48.770;9.200;2022-10-30T03:41:02;14.33;;;4.80;;
295;SDS011;132;48.770;9.200;2022-10-30T03:43:29;13.80;;;4.70;;
295;SDS011;132;48.770;9.200;2022-10-30T03:45:56;17.50;;;5.20;;
295;SDS011;132;48.770;9.200;2022-10-30T03:48:24;15.67;;;5.27;;
295;SDS011;132;48.770;9.200;2022-10-30T03:50:53;13.27;;;4.80;;
295;SDS011;132;48.770;9.200;2022-10-30T03:53:20;18.70;;;5.90;;
295;SDS011;132;48.770;9.200;2022-10-30T03:55:49;13.70;;;5.60;;
295;SDS011;132;48.770;9.200;2022-10-30T03:58:16;13.43;;;5.17;;
295;SDS011;132;48.770;9.200;2022-10-30T04:00:43;20.80;;;4.90;;
295;SDS011;132;48.770;9.200;2022-10-30T04:03:10;15.03;;;4.23;;
295;SDS011;132;48.770;9.200;2022-10-30T04:05:38;17.77;;;4.60;;
295;SDS011;132;48.770;9.200;2022-10-30T04:08:06;12.53;;;4.50;;
295;SDS011;132;48.770;9.200;2022-10-30T04:10:36;14.63;;;5.13;;
295;SDS011;132;48.770;9.200;2022-10-30T04:13:08;13.67;;;4.80;;
295;SDS011;132;48.770;9.200;2022-10-30T04:15:40;15.90;;;4.77;;
295;SDS011;132;48.770;9.200;2022-10-30T04:18:10;10.30;;;4.23;;
295;SDS011;132;48.770;9.200;2022-10-30T04:20:38;13.83;;;5.03;;
295;SDS011;132;48.770;9.200;2022-10-30T04:23:05;13.47;;;4.73;;
295;SDS011;132;48.770;9.200;2022-10-30T04:25:35;12.60;;;4.50;;
295;SDS011;132;48.770;9.200;2022-10-30T04:28:01;13.00;;;4.97;;
295;SDS011;132;48.770;9.200;2022-10-30T04:30:28;14.60;;;4.87;;
295;SDS011;132;48.770;9.200;2022-10-30T04:33:01;10.40;;;4.50;;
295;SDS011;132;48.770;9.200;2022-10-30T04:35:30;10.80;;;4.27;;
295;SDS011;132;48.770;9.200;2022-10-30T04:37:59;10.40;;;4.30;;
295;SDS011;132;48.770;9.200;2022-10-30T04:40:28;12.23;;;4.23;;
295;SDS011;132;48.770;9.200;2022-10-30T04:43:01;9.30;;;4.77;;
295;SDS011;132;48.770;9.200;2022-10-30T04:45:28;13.07;;;4.67;;
295;SDS011;132;48.770;9.200;2022-10-30T04:48:14;13.63;;;4.67;;
295;SDS011;132;48.770;9.200;2022-10-30T04:50:43;10.03;;;4.03;;
295;SDS011;132;48.770;9.200;2022-10-30T04:53:14;15.90;;;4.80;;
295;SDS011;132;48.770;9.200;2022-10-30T04:55:44;13.17;;;4.47;;
295;SDS011;132;48.770;9.200;2022-10-30T04:58:11;11.10;;;5.13;;
295;SDS011;132;48.770;9.200;2022-10-30T05:00:40;14.40;;;4.87;;
295;SDS011;132;48.770;9.200;2022-10-30T05:03:17;14.00;;;5.30;;
295;SDS011;132;48.770;9.200;2022-10-30T05:05:46;12.27;;;4.50;;
295;SDS011;132;48.770;9.200;2022-10-30T05:08:20;18.00;;;5.83;;
295;SDS011;132;48.770;9.200;2022-10-30T05:10:47;11.20;;;4.50;;
295;SDS011;132;48.770;9.200;2022-10-30T05:13:13;11.73;;;4.70;;
295;SDS011;132;48.770;9.200;2022-10-30T05:15:41;11.33;;;4.40;;
295;SDS011;132;48.770;9.200;2022-10-30T05:18:07;21.17;;;4.63;;
295;SDS011;132;48.770;9.200;2022-10-30T05:20:34;12.30;;;4.90;;
295;SDS011;132;48.770;9.200;2022-10-30T05:23:02;10.10;;;4.57;;
295;SDS011;132;48.770;9.200;2022-10-30T05:25:28;12.83;;;4.50;;
295;SDS011;132;48.770;9.200;2022-10-30T05:27:58;15.17;;;4.97;;
295;SDS011;132;48.770;9.200;2022-10-30T05:30:27;19.17;;;5.10;;
295;SDS011;132;48.770;9.200;2022-10-30T05:33:00;16.07;;;4.80;;
295;SDS011;132;48.770;9.200;2022-10-30T05:35:28;15.03;;;4.90;;
295;SDS011;132;48.770;9.200;2022-10-30T05:37:58;13.73;;;4.90;;
295;SDS011;132;48.770;9.200;2022-10-30T05:40:26;13.50;;;4.77;;
295;SDS011;132;48.770;9.200;2022-10-30T05:42:52;11.17;;;4.40;;
295;SDS011;132;48.770;9.200;2022-10-30T05:45:19;13.90;;;4.77;;
295;SDS011;132;48.770;9.200;2022-10-30T05:47:53;12.83;;;4.67;;
295;SDS011;132;48.770;9.200;2022-10-30T05:50:21;12.33;;;4.60;;
295;SDS011;132;48.770;9.200;2022-10-30T05:53:08;10.77;;;4.30;;
295;SDS011;132;48.770;9.200;2022-10-30T05:55:35;13.07;;;5.07;;
295;SDS011;132;48.770;9.200;2022-10-30T05:58:08;12.33;;;4.77;;
295;SDS011;132;48.770;9.200;2022-10-30T06:00:38;12.00;;;4.30;;
295;SDS011;132;48.770;9.200;2022-10-30T06:03:08;13.70;;;4.67;;
295;SDS011;132;48.770;9.200;2022-10-30T06:05:38;11.20;;;4.67;;
295;SDS011;132;48.770;9.200;2022-10-30T06:08:06;14.03;;;4.60;;
295;SDS011;132;48.770;9.200;2022-10-30T06:10:32;10.20;;;4.50;;
295;SDS011;132;48.770;9.200;2022-10-30T06:13:12;14.13;;;5.00;;
295;SDS011;132;48.770;9.200;2022-10-30T06:16:01;14.40;;;5.00;;
295;SDS011;132;48.770;9.200;2022-10-30T06:18:49;14.77;;;4.47;;
295;SDS011;132;48.770;9.200;2022-10-30T06:21:16;10.13;;;4.70;;
295;SDS011;132;48.770;9.200;2022-10-30T06:23:49;11.60;;;5.10;;
295;SDS011;132;48.770;9.200;2022-10-30T06:26:27;11.30;;;4.60;;
295;SDS011;132;48.770;9.200;2022-10-30T06:28:58;13.03;;;4.70;;
295;SDS011;132;48.770;9.200;2022-10-30T06:31:25;11.87;;;4.63;;
295;SDS011;132;48.770;9.200;2022-10-30T06:33:52;10.50;;;4.63;;
295;SDS011;132;48.770;9.200;2022-10-30T06:36:18;11.90;;;5.00;;
295;SDS011;132;48.770;9.200;2022-10-30T06:38:45;12.67;;;4.53;;
295;SDS011;132;48.770;9.200;2022-10-30T06:41:15;12.00;;;5.00;;
295;SDS011;132;48.770;9.200;2022-10-30T06:43:57;17.97;;;5.83;;
295;SDS011;132;48.770;9.200;2022-10-30T06:46:24;14.93;;;4.53;;
295;SDS011;132;48.770;9.200;2022-10-30T06:48:52;15.87;;;4.60;;
295;SDS011;132;48.770;9.200;2022-10-30T06:51:19;9.83;;;4.83;;
295;SDS011;132;48.770;9.200;2022-10-30T06:53:46;12.33;;;4.27;;
295;SDS011;132;48.770;9.200;2022-10-30T06:56:31;15.50;;;4.80;;
295;SDS011;132;48.770;9.200;2022-10-30T06:59:20;10.80;;;5.33;;
295;SDS011;132;48.770;9.200;2022-10-30T07:01:53;10.93;;;4.43;;
295;SDS011;132;48.770;9.200;2022-10-30T07:04:24;14.97;;;5.00;;
295;SDS011;132;48.770;9.200;2022-10-30T07:06:50;9.60;;;4.40;;
295;SDS011;132;48.770;9.200;2022-10-30T07:09:20;12.77;;;4.87;;
295;SDS011;132;48.770;9.200;2022-10-30T07:11:47;11.90;;;4.97;;
295;SDS011;132;48.770;9.200;2022-10-30T07:14:18;12.57;;;4.67;;
295;SDS011;132;48.770;9.200;2022-10-30T07:17:08;14.00;;;4.30;;
295;SDS011;132;48.770;9.200;2022-10-30T07:19:35;10.30;;;4.37;;
295;SDS011;132;48.770;9.200;2022-10-30T07:22:02;8.93;;;4.53;;
295;SDS011;132;48.770;9.200;2022-10-30T07:24:29;17.03;;;4.80;;
295;SDS011;132;48.770;9.200;2022-10-30T07:27:40;10.63;;;5.13;;
295;SDS011;132;48.770;9.200;2022-10-30T07:30:29;11.70;;;4.40;;
295;SDS011;132;48.770;9.200;2022-10-30T07:33:24;11.90;;;4.97;;
295;SDS011;132;48.770;9.200;2022-10-30T07:35:55;17.00;;;4.87;;
295;SDS011;132;48.770;9.200;2022-10-30T07:38:44;16.60;;;5.20;;
295;SDS011;132;48.770;9.200;2022-10-30T07:41:27;9.93;;;5.20;;
295;SDS011;132;48.770;9.200;2022-10-30T07:44:22;16.27;;;4.70;;
295;SDS011;132;48.770;9.200;2022-10-30T07:47:09;16.70;;;5.17;;
295;SDS011;132;48.770;9.200;2022-10-30T07:49:45;17.03;;;5.30;;
295;SDS011;132;48.770;9.200;2022-10-30T07:52:13;16.00;;;4.93;;
295;SDS011;132;48.770;9.200;2022-10-30T07:54:39;19.10;;;5.80;;
295;SDS011;132;48.770;9.200;2022-10-30T07:57:22;11.03;;;5.00;;
295;SDS011;132;48.770;9.200;2022-10-30T08:00:08;13.13;;;5.70;;
295;SDS011;132;48.770;9.200;2022-10-30T08:02:40;12.37;;;5.30;;
295;SDS011;132;48.770;9.200;2022-10-30T08:05:27;14.07;;;5.23;;
295;SDS011;132;48.770;9.200;2022-10-30T08:08:05;11.93;;;5.53;;
295;SDS011;132;48.770;9.200;2022-10-30T08:10:33;11.30;;;5.53;;
295;SDS011;132;48.770;9.200;2022-10-30T08:13:01;14.63;;;5.40;;
295;SDS011;132;48.770;9.200;2022-10-30T08:15:28;19.40;;;10.47;;
295;SDS011;132;48.770;9.200;2022-10-30T08:17:54;31.93;;;15.33;;
295;SDS011;132;48.770;9.200;2022-10-30T08:20:21;30.33;;;13.93;;
295;SDS011;132;48.770;9.200;2022-10-30T08:22:53;27.33;;;11.37;;
295;SDS011;132;48.770;9.200;2022-10-30T08:25:28;23.90;;;6.63;;
295;SDS011;132;48.770;9.200;2022-10-30T08:27:59;16.27;;;8.83;;
295;SDS011;132;48.770;9.200;2022-10-30T08:30:33;19.60;;;7.57;;
295;SDS011;132;48.770;9.200;2022-10-30T08:33:02;12.13;;;6.73;;
295;SDS011;132;48.770;9.200;2022-10-30T08:35:52;15.13;;;6.07;;
295;SDS011;132;48.770;9.200;2022-10-30T08:38:21;12.23;;;5.70;;
295;SDS011;132;48.770;9.200;2022-10-30T08:41:01;13.30;;;6.20;;
295;SDS011;132;48.770;9.200;2022-10-30T08:43:29;13.40;;;5.67;;
295;SDS011;132;48.770;9.200;2022-10-30T08:45:58;11.77;;;5.40;;
295;SDS011;132;48.770;9.200;2022-10-30T08:48:25;11.60;;;5.20;;
295;SDS011;132;48.770;9.200;2022-10-30T08:50:56;16.50;;;6.17;;
295;SDS011;132;48.770;9.200;2022-10-30T08:53:28;17.77;;;5.90;;
295;SDS011;132;48.770;9.200;2022-10-30T08:55:54;13.70;;;5.30;;
295;SDS011;132;48.770;9.200;2022-10-30T08:58:26;15.60;;;5.90;;
295;SDS011;132;48.770;9.200;2022-10-30T09:00:52;12.93;;;5.50;;
295;SDS011;132;48.770;9.200;2022-10-30T09:03:37;12.80;;;5.63;;
295;SDS011;132;48.770;9.200;2022-10-30T09:06:22;13.77;;;5.77;;
295;SDS011;132;48.770;9.200;2022-10-30T09:09:17;15.20;;;4.80;;
295;SDS011;132;48.770;9.200;2022-10-30T09:11:48;13.80;;;5.10;;
295;SDS011;132;48.770;9.200;2022-10-30T09:14:15;8.97;;;4.80;;
295;SDS011;132;48.770;9.200;2022-10-30T09:16:41;17.07;;;4.83;;
295;SDS011;132;48.770;9.200;2022-10-30T09:19:08;9.83;;;4.90;;
295;SDS011;132;48.770;9.200;2022-10-30T09:21:35;11.03;;;4.70;;
295;SDS011;132;48.770;9.200;2022-10-30T09:24:04;11.03;;;5.40;;
295;SDS011;132;48.770;9.200;2022-10-30T09:26:50;9.07;;;4.87;;
295;SDS011;132;48.770;9.200;2022-10-30T09:29:26;12.47;;;4.97;;
295;SDS011;132;48.770;9.200;2022-10-30T09:31:54;12.60;;;4.20;;
295;SDS011;132;48.770;9.200;2022-10-30T09:34:23;17.10;;;5.40;;
295;SDS011;132;48.770;9.200;2022-10-30T09:37:08;12.73;;;4.90;;
295;SDS011;132;48.770;9.200;2022-10-30T09:39:36;12.83;;;5.50;;
295;SDS011;132;48.770;9.200;2022-10-30T09:42:08;7.90;;;4.60;;
295;SDS011;132;48.770;9.200;2022-10-30T09:50:45;11.00;;;5.40;;
295;SDS011;132;48.770;9.200;2022-10-30T09:58:43;14.13;;;5.07;;
295;SDS011;132;48.770;9.200;2022-10-30T10:07:31;9.43;;;5.53;;
295;SDS011;132;48.770;9.200;2022-10-30T10:10:23;13.47;;;5.80;;
295;SDS011;132;48.770;9.200;2022-10-30T10:13:06;16.97;;;5.60;;
295;SDS011;132;48.770;9.200;2022-10-30T10:15:41;11.13;;;5.20;;
295;SDS011;132;48.770;9.200;2022-10-30T10:18:17;11.10;;;5.47;;
295;SDS011;132;48.770;9.200;2022-10-30T10:20:51;14.07;;;5.27;;
295;SDS011;132;48.770;9.200;2022-10-30T16:27:56;12.03;;;4.10;;
295;SDS011;132;48.770;9.200;2022-10-30T16:30:23;7.70;;;3.57;;
295;SDS011;132;48.770;9.200;2022-10-30T16:32:54;11.50;;;3.60;;
295;SDS011;132;48.770;9.200;2022-10-30T16:35:22;16.17;;;3.90;;
295;SDS011;132;48.770;9.200;2022-10-30T16:37:49;14.53;;;3.67;;
295;SDS011;132;48.770;9.200;2022-10-30T16:40:18;14.50;;;4.27;;
295;SDS011;132;48.770;9.200;2022-10-30T16:42:53;9.00;;;3.80;;
295;SDS011;132;48.770;9.200;2022-10-30T16:47:54;8.27;;;3.47;;
295;SDS011;132;48.770;9.200;2022-10-30T16:50:41;12.40;;;3.27;;
295;SDS011;132;48.770;9.200;2022-10-30T16:53:14;9.93;;;3.20;;
295;SDS011;132;48.770;9.200;2022-10-30T16:55:45;9.63;;;3.63;;
295;SDS011;132;48.770;9.200;2022-10-30T16:58:12;10.40;;;3.70;;
295;SDS011;132;48.770;9.200;2022-10-30T17:00:39;6.40;;;2.93;;
295;SDS011;132;48.770;9.200;2022-10-30T17:03:07;6.47;;;3.23;;
295;SDS011;132;48.770;9.200;2022-10-30T17:05:36;5.60;;;2.90;;
295;SDS011;132;48.770;9.200;2022-10-30T17:10:56;8.60;;;3.47;;
295;SDS011;132;48.770;9.200;2022-10-30T17:16:17;9.60;;;3.80;;
295;SDS011;132;48.770;9.200;2022-10-30T17:18:49;14.13;;;4.20;;
295;SDS011;132;48.770;9.200;2022-10-30T17:24:02;8.57;;;3.40;;
295;SDS011;132;48.770;9.200;2022-10-30T17:26:31;10.20;;;4.20;;
295;SDS011;132;48.770;9.200;2022-10-30T17:29:03;9.97;;;4.00;;
295;SDS011;132;48.770;9.200;2022-10-30T17:31:41;10.17;;;3.70;;
295;SDS011;132;48.770;9.200;2022-10-30T17:34:17;8.80;;;3.87;;
295;SDS011;132;48.770;9.200;2022-10-30T17:36:47;12.77;;;3.80;;
295;SDS011;132;48.770;9.200;2022-10-30T17:39:14;11.50;;;4.37;;
295;SDS011;132;48.770;9.200;2022-10-30T17:41:41;10.50;;;4.40;;
295;SDS011;132;48.770;9.200;2022-10-30T17:44:16;11.43;;;4.00;;
295;SDS011;132;48.770;9.200;2022-10-30T17:46:45;10.73;;;4.50;;
295;SDS011;132;48.770;9.200;2022-10-30T17:49:22;8.77;;;4.40;;
295;SDS011;132;48.770;9.200;2022-10-30T17:51:57;9.13;;;4.00;;
295;SDS011;132;48.770;9.200;2022-10-30T17:54:23;8.70;;;3.70;;
295;SDS011;132;48.770;9.200;2022-10-30T17:56:50;6.40;;;3.60;;
295;SDS011;132;48.770;9.200;2022-10-30T17:59:17;12.73;;;3.30;;
295;SDS011;132;48.770;9.200;2022-10-30T18:01:43;12.17;;;3.30;;
295;SDS011;132;48.770;9.200;2022-10-30T18:04:14;4.37;;;2.90;;
295;SDS011;132;48.770;9.200;2022-10-30T18:06:42;10.90;;;3.47;;
295;SDS011;132;48.770;9.200;2022-10-30T18:09:09;7.40;;;3.17;;
295;SDS011;132;48.770;9.200;2022-10-30T18:11:36;5.50;;;2.70;;
295;SDS011;132;48.770;9.200;2022-10-30T18:14:03;9.07;;;2.93;;
295;SDS011;132;48.770;9.200;2022-10-30T18:16:29;9.97;;;3.23;;
295;SDS011;132;48.770;9.200;2022-10-30T18:18:56;8.80;;;3.00;;
295;SDS011;132;48.770;9.200;2022-10-30T18:21:23;5.87;;;2.60;;
295;SDS011;132;48.770;9.200;2022-10-30T18:23:52;7.57;;;2.97;;
295;SDS011;132;48.770;9.200;2022-10-30T18:26:20;7.80;;;3.40;;
295;SDS011;132;48.770;9.200;2022-10-30T18:28:48;9.53;;;3.20;;
295;SDS011;132;48.770;9.200;2022-10-30T18:31:16;7.80;;;3.23;;
295;SDS011;132;48.770;9.200;2022-10-30T18:33:44;9.10;;;3.70;;
295;SDS011;132;48.770;9.200;2022-10-30T18:36:12;8.53;;;3.70;;
295;SDS011;132;48.770;9.200;2022-10-30T18:38:40;11.50;;;4.10;;
295;SDS011;132;48.770;9.200;2022-10-30T18:41:16;13.70;;;4.90;;
295;SDS011;132;48.770;9.200;2022-10-30T18:43:45;10.53;;;4.73;;
295;SDS011;132;48.770;9.200;2022-10-30T18:46:11;12.90;;;5.90;;
295;SDS011;132;48.770;9.200;2022-10-30T18:48:38;16.17;;;7.20;;
295;SDS011;132;48.770;9.200;2022-10-30T18:51:05;23.63;;;10.33;;
295;SDS011;132;48.770;9.200;2022-10-30T18:53:49;15.27;;;8.30;;
295;SDS011;132;48.770;9.200;2022-10-30T18:56:19;17.80;;;8.30;;
295;SDS011;132;48.770;9.200;2022-10-30T18:58:47;16.13;;;7.67;;
295;SDS011;132;48.770;9.200;2022-10-30T19:01:15;16.80;;;6.90;;
295;SDS011;132;48.770;9.200;2022-10-30T19:03:43;12.37;;;6.10;;
295;SDS011;132;48.770;9.200;2022-10-30T19:06:11;16.60;;;6.50;;
295;SDS011;132;48.770;9.200;2022-10-30T19:08:39;19.70;;;7.07;;
295;SDS011;132;48.770;9.200;2022-10-30T19:11:06;9.67;;;5.80;;
295;SDS011;132;48.770;9.200;2022-10-30T19:13:36;11.83;;;6.10;;
295;SDS011;132;48.770;9.200;2022-10-30T19:16:07;12.60;;;5.80;;
295;SDS011;132;48.770;9.200;2022-10-30T19:18:36;16.73;;;5.87;;
295;SDS011;132;48.770;9.200;2022-10-30T19:21:02;18.77;;;6.60;;
295;SDS011;132;48.770;9.200;2022-10-30T19:23:29;14.10;;;7.33;;
295;SDS011;132;48.770;9.200;2022-10-30T19:25:55;13.77;;;6.50;;
295;SDS011;132;48.770;9.200;2022-10-30T19:28:21;13.80;;;6.20;;
295;SDS011;132;48.770;9.200;2022-10-30T19:30:48;12.00;;;5.97;;
295;SDS011;132;48.770;9.200;2022-10-30T19:33:15;20.33;;;6.60;;
295;SDS011;132;48.770;9.200;2022-10-30T19:35:42;11.23;;;6.13;;
295;SDS011;132;48.770;9.200;2022-10-30T19:38:09;10.10;;;5.70;;
295;SDS011;132;48.770;9.200;2022-10-30T19:40:37;13.17;;;6.40;;
295;SDS011;132;48.770;9.200;2022-10-30T19:43:05;13.37;;;6.43;;
295;SDS011;132;48.770;9.200;2022-10-30T19:45:32;13.90;;;5.53;;
295;SDS011;132;48.770;9.200;2022-10-30T19:48:00;10.40;;;5.90;;
295;SDS011;132;48.770;9.200;2022-10-30T19:50:35;11.20;;;6.10;;
295;SDS011;132;48.770;9.200;2022-10-30T19:53:03;13.03;;;5.47;;
295;SDS011;132;48.770;9.200;2022-10-30T19:55:31;12.43;;;5.83;;
295;SDS011;132;48.770;9.200;2022-10-30T19:58:00;17.70;;;5.80;;
295;SDS011;132;48.770;9.200;2022-10-30T20:00:29;17.20;;;6.60;;
295;SDS011;132;48.770;9.200;2022-10-30T20:02:57;10.93;;;5.87;;
295;SDS011;132;48.770;9.200;2022-10-30T20:05:25;11.40;;;6.03;;
295;SDS011;132;48.770;9.200;2022-10-30T20:10:46;15.30;;;6.00;;
295;SDS011;132;48.770;9.200;2022-10-30T20:13:17;17.63;;;6.30;;
295;SDS011;132;48.770;9.200;2022-10-30T20:15:45;11.40;;;5.40;;
295;SDS011;132;48.770;9.200;2022-10-30T20:20:40;11.13;;;5.80;;
295;SDS011;132;48.770;9.200;2022-10-30T20:23:17;10.30;;;5.50;;
295;SDS011;132;48.770;9.200;2022-10-30T20:25:45;11.87;;;5.73;;
295;SDS011;132;48.770;9.200;2022-10-30T20:28:23;13.83;;;5.70;;
295;SDS011;132;48.770;9.200;2022-10-30T20:31:05;12.90;;;5.70;;
295;SDS011;132;48.770;9.200;2022-10-30T20:33:32;11.80;;;6.00;;
295;SDS011;132;48.770;9.200;2022-10-30T20:35:59;13.77;;;6.10;;
295;SDS011;132;48.770;9.200;2022-10-30T20:38:26;15.50;;;5.80;;
295;SDS011;132;48.770;9.200;2022-10-30T20:40:55;10.93;;;5.93;;
295;SDS011;132;48.770;9.200;2022-10-30T20:43:24;11.17;;;6.43;;
295;SDS011;132;48.770;9.200;2022-10-30T20:45:57;16.07;;;7.20;;
295;SDS011;132;48.770;9.200;2022-10-30T20:48:25;16.43;;;6.67;;
295;SDS011;132;48.770;9.200;2022-10-30T20:50:52;19.83;;;7.60;;
295;SDS011;132;48.770;9.200;2022-10-30T20:53:19;22.53;;;7.50;;
295;SDS011;132;48.770;9.200;2022-10-30T20:55:46;15.00;;;7.33;;
295;SDS011;132;48.770;9.200;2022-10-30T20:58:12;12.27;;;6.70;;
295;SDS011;132;48.770;9.200;2022-10-30T21:00:39;17.40;;;7.30;;
295;SDS011;132;48.770;9.200;2022-10-30T21:03:05;14.20;;;6.50;;
295;SDS011;132;48.770;9.200;2022-10-30T21:05:33;16.87;;;8.17;;
295;SDS011;132;48.770;9.200;2022-10-30T21:08:04;16.30;;;7.20;;
295;SDS011;132;48.770;9.200;2022-10-30T21:10:31;19.53;;;6.90;;
295;SDS011;132;48.770;9.200;2022-10-30T21:12:58;13.30;;;6.60;;
295;SDS011;132;48.770;9.200;2022-10-30T21:15:24;20.27;;;6.93;;
295;SDS011;132;48.770;9.200;2022-10-30T21:17:50;13.73;;;6.50;;
295;SDS011;132;48.770;9.200;2022-10-30T21:20:17;17.00;;;7.17;;
295;SDS011;132;48.770;9.200;2022-10-30T21:22:44;13.73;;;5.93;;
295;SDS011;132;48.770;9.200;2022-10-30T21:25:10;21.40;;;6.50;;
295;SDS011;132;48.770;9.200;2022-10-30T21:27:36;12.03;;;5.80;;
295;SDS011;132;48.770;9.200;2022-10-30T21:30:03;15.80;;;6.17;;
295;SDS011;132;48.770;9.200;2022-10-30T21:32:30;12.13;;;5.53;;
295;SDS011;132;48.770;9.200;2022-10-30T21:34:56;10.70;;;5.40;;
295;SDS011;132;48.770;9.200;2022-10-30T21:37:22;12.77;;;5.60;;
295;SDS011;132;48.770;9.200;2022-10-30T21:39:49;15.23;;;5.67;;
295;SDS011;132;48.770;9.200;2022-10-30T21:42:15;16.13;;;5.50;;
295;SDS011;132;48.770;9.200;2022-10-30T21:44:42;15.83;;;6.00;;
295;SDS011;132;48.770;9.200;2022-10-30T21:47:08;10.27;;;5.47;;
295;SDS011;132;48.770;9.200;2022-10-30T21:49:34;13.70;;;6.70;;
295;SDS011;132;48.770;9.200;2022-10-30T21:52:01;14.70;;;6.30;;
295;SDS011;132;48.770;9.200;2022-10-30T21:54:27;12.47;;;6.13;;
295;SDS011;132;48.770;9.200;2022-10-30T21:56:54;16.30;;;6.80;;
295;SDS011;132;48.770;9.200;2022-10-30T21:59:20;13.60;;;6.23;;
295;SDS011;132;48.770;9.200;2022-10-30T22:01:46;11.50;;;6.23;;
295;SDS011;132;48.770;9.200;2022-10-30T22:04:13;11.47;;;5.73;;
295;SDS011;132;48.770;9.200;2022-10-30T22:06:40;13.00;;;5.77;;
295;SDS011;132;48.770;9.200;2022-10-30T22:09:08;13.73;;;5.50;;
295;SDS011;132;48.770;9.200;2022-10-30T22:11:35;11.10;;;5.40;;
295;SDS011;132;48.770;9.200;2022-10-30T22:14:02;14.17;;;6.10;;
295;SDS011;132;48.770;9.200;2022-10-30T22:16:30;13.70;;;5.90;;
295;SDS011;132;48.770;9.200;2022-10-30T22:18:59;7.27;;;5.20;;
295;SDS011;132;48.770;9.200;2022-10-30T22:21:26;17.10;;;6.00;;
295;SDS011;132;48.770;9.200;2022-10-30T22:23:52;11.20;;;5.17;;
295;SDS011;132;48.770;9.200;2022-10-30T22:26:19;13.97;;;5.37;;
295;SDS011;132;48.770;9.200;2022-10-30T22:28:50;11.93;;;5.80;;
295;SDS011;132;48.770;9.200;2022-10-30T22:31:19;11.97;;;6.03;;
295;SDS011;132;48.770;9.200;2022-10-30T22:33:46;12.60;;;5.50;;
295;SDS011;132;48.770;9.200;2022-10-30T22:36:23;13.40;;;5.47;;
295;SDS011;132;48.770;9.200;2022-10-30T22:38:58;13.33;;;5.00;;
295;SDS011;132;48.770;9.200;2022-10-30T22:41:26;10.07;;;5.70;;
295;SDS011;132;48.770;9.200;2022-10-30T22:43:54;9.73;;;5.30;;
295;SDS011;132;48.770;9.200;2022-10-30T22:46:21;11.00;;;5.43;;
295;SDS011;132;48.770;9.200;2022-10-30T22:48:49;18.60;;;5.57;;
295;SDS011;132;48.770;9.200;2022-10-30T22:51:16;12.93;;;5.20;;
295;SDS011;132;48.770;9.200;2022-10-30T22:53:45;11.17;;;5.47;;